Time;durP1;ratioP1;P1;durP2;ratioP2;P2;SDS_P1;SDS_P2;PMS_P1;PMS_P2;Temp;Humidity;BMP_temperature;BMP_pressure;BME280_temperature;BME280_humidity;BME280_pressure;Samples;Min_cycle;Max_cycle;Signal;HPM_P1;HPM_P2
2022/07/09 00:00:26;;;;;;;1246.47;999.90;;;19.20;99.90;;;;;;5071778;28;20197;-79
2022/07/09 00:02:52;;;;;;;1298.47;999.90;;;19.20;99.90;;;;;;5069427;28;20181;-79
2022/07/09 00:05:17;;;;;;;1300.53;999.90;;;19.20;99.90;;;;;;5089148;28;20200;-79
2022/07/09 00:07:43;;;;;;;1306.75;999.90;;;19.20;99.90;;;;;;5036552;28;20178;-79
2022/07/09 00:10:10;;;;;;;1281.20;999.90;;;19.10;99.90;;;;;;5042730;28;20189;-79
2022/07/09 00:12:36;;;;;;;1299.07;999.90;;;19.10;99.90;;;;;;5072008;28;20585;-79
2022/07/09 00:15:02;;;;;;;1307.28;999.90;;;19.00;99.90;;;;;;5091475;28;20271;-78
2022/07/09 00:17:29;;;;;;;1319.82;999.90;;;19.00;99.90;;;;;;5040088;28;20251;-80
2022/07/09 00:19:56;;;;;;;1320.15;999.90;;;19.00;99.90;;;;;;5075163;28;20544;-79
2022/07/09 00:22:21;;;;;;;1312.35;999.90;;;19.00;99.90;;;;;;5083567;28;20675;-79
2022/07/09 00:24:47;;;;;;;1310.20;999.90;;;18.90;99.90;;;;;;5067670;28;20185;-79
2022/07/09 00:27:13;;;;;;;1286.40;999.90;;;18.90;99.90;;;;;;5064634;28;20200;-78
2022/07/09 00:29:38;;;;;;;1287.30;999.90;;;18.90;99.90;;;;;;5074894;28;20693;-79
2022/07/09 00:32:04;;;;;;;1285.55;999.90;;;18.90;99.90;;;;;;5088553;28;20187;-79
2022/07/09 00:34:30;;;;;;;1275.93;999.90;;;18.90;99.90;;;;;;5093064;28;20189;-79
2022/07/09 00:36:56;;;;;;;1276.75;999.90;;;18.90;99.90;;;;;;5084921;28;20197;-79
2022/07/09 00:39:21;;;;;;;1296.38;999.90;;;18.90;99.90;;;;;;5065513;28;20267;-78
2022/07/09 00:41:47;;;;;;;1297.80;999.90;;;18.90;99.90;;;;;;5075248;28;20192;-79
2022/07/09 00:44:13;;;;;;;1293.75;999.90;;;18.90;99.90;;;;;;5089563;28;20189;-79
2022/07/09 00:46:38;;;;;;;1276.28;999.90;;;18.90;99.90;;;;;;5079398;28;20205;-78
2022/07/09 00:49:06;;;;;;;1277.03;999.90;;;18.80;99.90;;;;;;5079670;28;20212;-79
2022/07/09 00:51:32;;;;;;;1273.38;999.90;;;18.90;99.90;;;;;;5065142;28;20191;-79
2022/07/09 00:53:59;;;;;;;1260.43;999.90;;;18.90;99.90;;;;;;5043320;28;20193;-79
2022/07/09 00:56:30;;;;;;;1250.57;999.90;;;18.80;99.90;;;;;;5056804;28;20201;-79
2022/07/09 00:58:57;;;;;;;1251.40;999.90;;;18.80;99.90;;;;;;5060484;28;20610;-79
2022/07/09 01:01:23;;;;;;;1249.97;999.90;;;18.70;99.90;;;;;;5076051;28;20231;-79
2022/07/09 01:03:48;;;;;;;1257.85;999.90;;;18.70;99.90;;;;;;5065172;28;20185;-79
2022/07/09 01:06:15;;;;;;;1275.10;999.90;;;18.60;99.90;;;;;;5088803;28;20203;-79
2022/07/09 01:08:41;;;;;;;1329.28;999.90;;;18.50;99.90;;;;;;5051076;28;20630;-79
2022/07/09 01:11:06;;;;;;;1316.00;999.90;;;18.50;99.90;;;;;;5063452;28;20237;-79
2022/07/09 01:13:32;;;;;;;1323.75;999.90;;;18.60;99.90;;;;;;5057809;28;20189;-79
2022/07/09 01:15:58;;;;;;;1343.28;999.90;;;18.60;99.90;;;;;;5046469;28;20547;-79
2022/07/09 01:18:23;;;;;;;1346.35;999.90;;;18.60;99.90;;;;;;5073852;28;20199;-79
2022/07/09 01:20:50;;;;;;;1340.75;999.90;;;18.60;99.90;;;;;;5063095;28;20193;-80
2022/07/09 01:23:16;;;;;;;1374.75;999.90;;;18.60;99.90;;;;;;5077409;28;20185;-80
2022/07/09 01:25:45;;;;;;;1375.65;999.90;;;18.70;99.90;;;;;;5078810;28;20204;-80
2022/07/09 01:28:11;;;;;;;1383.47;999.90;;;18.70;99.90;;;;;;5091438;28;20180;-78
2022/07/09 01:30:40;;;;;;;1380.82;999.90;;;18.80;99.90;;;;;;5045632;28;20246;-79
2022/07/09 01:33:06;;;;;;;1380.18;999.90;;;18.80;99.90;;;;;;5078388;28;20211;-79
2022/07/09 01:35:31;;;;;;;1385.55;999.90;;;18.70;99.90;;;;;;5073200;28;20181;-79
2022/07/09 01:37:57;;;;;;;1381.65;999.90;;;18.80;99.90;;;;;;5068284;28;20248;-79
2022/07/09 01:40:23;;;;;;;1378.45;999.90;;;18.80;99.90;;;;;;5056394;28;20708;-79
2022/07/09 01:42:50;;;;;;;1379.60;999.90;;;18.70;99.90;;;;;;5067498;28;20296;-79
2022/07/09 01:45:16;;;;;;;1381.00;999.90;;;18.70;99.90;;;;;;5064036;28;20185;-79
2022/07/09 01:47:42;;;;;;;1385.20;999.90;;;18.60;99.90;;;;;;5071652;28;20241;-78
2022/07/09 01:50:09;;;;;;;1385.10;999.90;;;18.60;99.90;;;;;;5054069;28;20189;-79
2022/07/09 01:52:35;;;;;;;1387.32;999.90;;;18.50;99.90;;;;;;5064698;28;20189;-80
2022/07/09 01:55:01;;;;;;;1400.53;999.90;;;18.50;99.90;;;;;;5072134;28;20314;-78
2022/07/09 01:57:27;;;;;;;1413.15;999.90;;;18.40;99.90;;;;;;5052222;28;20205;-79
2022/07/09 01:59:53;;;;;;;1438.30;999.90;;;18.30;99.90;;;;;;5088955;28;20652;-80
2022/07/09 02:02:19;;;;;;;1496.88;999.90;;;18.30;99.90;;;;;;5061089;28;20220;-79
2022/07/09 02:04:45;;;;;;;1511.70;999.90;;;18.30;99.90;;;;;;5085192;28;20665;-79
2022/07/09 02:07:14;;;;;;;1534.45;999.90;;;18.20;99.90;;;;;;5074851;28;20638;-79
2022/07/09 02:09:40;;;;;;;1521.45;999.90;;;18.20;99.90;;;;;;5055961;28;20189;-80
2022/07/09 02:12:07;;;;;;;1520.53;999.90;;;18.20;99.90;;;;;;5086089;28;20200;-79
2022/07/09 02:14:32;;;;;;;1543.22;999.90;;;18.20;99.90;;;;;;5088271;28;20641;-80
2022/07/09 02:16:58;;;;;;;1557.50;999.90;;;18.30;99.90;;;;;;5054272;28;20210;-79
2022/07/09 02:19:24;;;;;;;1561.65;999.90;;;18.20;99.90;;;;;;5069531;28;20551;-79
2022/07/09 02:21:50;;;;;;;1549.55;999.90;;;18.20;99.90;;;;;;5074130;28;20181;-79
2022/07/09 02:24:15;;;;;;;1559.80;999.90;;;18.10;99.90;;;;;;5087963;28;20196;-79
2022/07/09 02:26:41;;;;;;;1559.00;999.90;;;18.20;99.90;;;;;;5064712;28;20192;-79
2022/07/09 02:29:07;;;;;;;1561.15;999.90;;;18.10;99.90;;;;;;5054832;28;20283;-78
2022/07/09 02:31:33;;;;;;;1553.53;999.90;;;18.10;99.90;;;;;;5065301;28;20192;-79
2022/07/09 02:33:58;;;;;;;1560.05;999.90;;;18.10;99.90;;;;;;5061056;28;20276;-79
2022/07/09 02:36:24;;;;;;;1564.45;999.90;;;18.20;99.90;;;;;;5073735;28;20232;-79
2022/07/09 02:38:50;;;;;;;1571.50;999.90;;;18.20;99.90;;;;;;5091171;28;20204;-79
2022/07/09 02:41:15;;;;;;;1577.35;999.90;;;18.20;99.90;;;;;;5090288;28;20177;-80
2022/07/09 02:43:44;;;;;;;1598.88;999.90;;;18.20;99.90;;;;;;5061092;28;20267;-79
2022/07/09 02:46:10;;;;;;;1586.53;999.90;;;18.30;99.90;;;;;;5072526;28;20534;-78
2022/07/09 02:48:36;;;;;;;1603.97;999.90;;;18.40;99.90;;;;;;5091300;28;20653;-79
2022/07/09 02:51:03;;;;;;;1582.25;999.90;;;18.40;99.90;;;;;;5091775;28;20219;-78
2022/07/09 02:53:29;;;;;;;1595.05;999.90;;;18.40;99.90;;;;;;5056761;28;20212;-79
2022/07/09 02:55:54;;;;;;;1609.50;999.90;;;18.50;99.90;;;;;;5067488;28;20240;-79
2022/07/09 02:58:20;;;;;;;1604.95;999.90;;;18.50;99.90;;;;;;5060600;28;20193;-76
2022/07/09 03:00:46;;;;;;;1606.75;999.90;;;18.60;99.90;;;;;;5066562;28;20189;-80
2022/07/09 03:03:11;;;;;;;1602.13;999.90;;;18.60;99.90;;;;;;5087842;28;20215;-79
2022/07/09 03:05:37;;;;;;;1612.47;999.90;;;18.60;99.90;;;;;;5068014;28;20223;-79
2022/07/09 03:08:03;;;;;;;1597.63;999.90;;;18.60;99.90;;;;;;5044636;28;20242;-79
2022/07/09 03:10:29;;;;;;;1606.05;999.90;;;18.70;99.90;;;;;;5075803;28;20206;-80
2022/07/09 03:12:54;;;;;;;1592.88;999.90;;;18.60;99.90;;;;;;5085495;28;20182;-79
2022/07/09 03:15:20;;;;;;;1607.32;999.90;;;18.60;99.90;;;;;;5071846;28;20189;-79
2022/07/09 03:17:47;;;;;;;1597.70;999.90;;;18.60;99.90;;;;;;5076338;28;20205;-79
2022/07/09 03:20:13;;;;;;;1602.72;999.90;;;18.60;99.90;;;;;;5080260;28;20196;-79
2022/07/09 03:22:40;;;;;;;1584.93;999.90;;;18.60;99.90;;;;;;5082562;28;20173;-79
2022/07/09 03:25:07;;;;;;;1599.18;999.90;;;18.70;99.90;;;;;;5060041;28;20181;-79
2022/07/09 03:27:33;;;;;;;1599.70;999.90;;;18.70;99.90;;;;;;5073051;28;20284;-79
2022/07/09 03:29:59;;;;;;;1583.53;999.90;;;18.70;99.90;;;;;;5076130;28;20211;-78
2022/07/09 03:32:25;;;;;;;1585.78;999.90;;;18.70;99.90;;;;;;5056394;28;20178;-80
2022/07/09 03:34:54;;;;;;;1591.10;999.90;;;18.70;99.90;;;;;;5087788;28;20195;-79
2022/07/09 03:37:20;;;;;;;1604.47;999.90;;;18.70;99.90;;;;;;5056397;28;20661;-80
2022/07/09 03:39:46;;;;;;;1592.03;999.90;;;18.70;99.90;;;;;;5070618;28;20193;-79
2022/07/09 03:42:12;;;;;;;1607.68;999.90;;;18.60;99.90;;;;;;5072716;28;20177;-79
2022/07/09 03:44:38;;;;;;;1599.70;999.90;;;18.70;99.90;;;;;;5077536;28;20193;-80
2022/07/09 03:47:04;;;;;;;1604.38;999.90;;;18.70;99.90;;;;;;5057241;28;20200;-79
2022/07/09 03:49:30;;;;;;;1601.47;999.90;;;18.70;99.90;;;;;;5048777;28;20196;-79
2022/07/09 03:51:56;;;;;;;1610.60;999.90;;;18.70;99.90;;;;;;5058260;28;20626;-79
2022/07/09 03:54:23;;;;;;;1605.80;999.90;;;18.70;99.90;;;;;;5059937;28;20188;-80
2022/07/09 03:56:49;;;;;;;1615.57;999.90;;;18.70;99.90;;;;;;5063321;28;20211;-78
2022/07/09 03:59:15;;;;;;;1603.05;999.90;;;18.70;99.90;;;;;;5072027;28;20178;-79
2022/07/09 04:01:41;;;;;;;1616.93;999.90;;;18.70;99.90;;;;;;5071709;28;20658;-79
2022/07/09 04:04:06;;;;;;;1604.80;999.90;;;18.80;99.90;;;;;;5053407;28;20197;-80
2022/07/09 04:06:32;;;;;;;1601.75;999.90;;;18.70;99.90;;;;;;5059231;28;20192;-79
2022/07/09 04:08:58;;;;;;;1604.00;999.90;;;18.80;99.90;;;;;;5085101;28;20181;-80
2022/07/09 04:11:24;;;;;;;1618.13;999.90;;;18.80;99.90;;;;;;5074967;28;20201;-80
2022/07/09 04:13:50;;;;;;;1621.25;999.90;;;18.90;99.90;;;;;;5086160;28;20243;-80
2022/07/09 04:16:16;;;;;;;1622.88;999.90;;;18.90;99.90;;;;;;5081468;28;20247;-79
2022/07/09 04:18:43;;;;;;;1622.95;999.90;;;18.90;99.90;;;;;;5082278;28;20188;-79
2022/07/09 04:21:09;;;;;;;1629.05;999.90;;;19.00;99.90;;;;;;5075946;28;20208;-78
2022/07/09 04:23:35;;;;;;;1621.78;999.90;;;19.00;99.90;;;;;;5084466;28;20192;-78
2022/07/09 04:26:01;;;;;;;1634.55;999.90;;;19.10;99.90;;;;;;5082722;28;20260;-79
2022/07/09 04:28:27;;;;;;;1620.85;999.90;;;19.20;99.90;;;;;;5060378;28;20280;-80
2022/07/09 04:30:52;;;;;;;1614.35;999.90;;;19.20;99.90;;;;;;5058938;28;20184;-79
2022/07/09 04:33:18;;;;;;;1628.43;999.90;;;19.20;99.90;;;;;;5062872;28;20588;-79
2022/07/09 04:35:45;;;;;;;1617.82;999.90;;;19.20;99.90;;;;;;5074529;28;20181;-79
2022/07/09 04:38:12;;;;;;;1617.50;999.90;;;19.20;99.90;;;;;;5075478;28;20184;-77
2022/07/09 04:40:38;;;;;;;1609.82;999.90;;;19.30;99.90;;;;;;5090696;28;20707;-79
2022/07/09 04:43:05;;;;;;;1614.78;999.90;;;19.30;99.90;;;;;;5062246;28;20226;-79
2022/07/09 04:45:32;;;;;;;1617.32;999.90;;;19.40;99.90;;;;;;5065827;28;20551;-78
2022/07/09 04:47:58;;;;;;;1611.88;999.90;;;19.40;99.90;;;;;;5061357;28;20661;-80
2022/07/09 04:50:25;;;;;;;1615.03;999.90;;;19.50;99.90;;;;;;5079214;28;20181;-80
2022/07/09 04:52:50;;;;;;;1595.95;999.90;;;19.60;99.90;;;;;;5074427;28;20189;-80
2022/07/09 04:55:16;;;;;;;1596.93;999.90;;;19.70;99.90;;;;;;5070981;28;20189;-79
2022/07/09 04:57:43;;;;;;;1597.10;999.90;;;19.80;99.90;;;;;;5081976;28;20554;-81
2022/07/09 05:00:10;;;;;;;1584.22;999.90;;;20.00;99.90;;;;;;5052747;28;20282;-81
2022/07/09 05:02:36;;;;;;;1584.82;999.90;;;20.00;99.90;;;;;;5090889;28;20184;-79
2022/07/09 05:05:03;;;;;;;1567.18;999.90;;;20.10;99.90;;;;;;5078880;28;20193;-82
2022/07/09 05:07:30;;;;;;;1585.63;999.90;;;20.30;99.90;;;;;;5082067;28;20182;-79
2022/07/09 05:09:56;;;;;;;1586.60;999.90;;;20.40;99.90;;;;;;5052657;28;20197;-78
2022/07/09 05:12:22;;;;;;;1566.55;999.90;;;20.50;99.90;;;;;;5085296;28;20561;-80
2022/07/09 05:14:48;;;;;;;1527.88;999.90;;;20.70;99.90;;;;;;5055910;28;20277;-79
2022/07/09 05:17:13;;;;;;;1528.45;999.90;;;20.70;99.90;;;;;;5039571;28;20201;-79
2022/07/09 05:19:39;;;;;;;1499.90;999.90;;;20.70;99.90;;;;;;5064213;28;20649;-79
2022/07/09 05:22:05;;;;;;;1483.05;999.90;;;20.70;99.90;;;;;;5091797;28;20237;-79
2022/07/09 05:24:30;;;;;;;1483.70;999.90;;;20.70;99.90;;;;;;5092528;28;20275;-79
2022/07/09 05:26:56;;;;;;;1468.78;999.90;;;20.70;99.90;;;;;;5074004;28;20236;-80
2022/07/09 05:29:26;;;;;;;1476.18;999.90;;;20.70;99.90;;;;;;5066620;28;20189;-79
2022/07/09 05:31:52;;;;;;;1463.53;999.90;;;20.80;99.90;;;;;;5074247;28;20200;-78
2022/07/09 05:34:18;;;;;;;1479.18;999.90;;;21.00;99.90;;;;;;5083732;28;20423;-79
2022/07/09 05:36:43;;;;;;;1477.50;999.90;;;21.00;99.90;;;;;;5074333;28;20219;-79
2022/07/09 05:39:09;;;;;;;1459.78;999.90;;;21.10;99.90;;;;;;5050437;28;20284;-79
2022/07/09 05:41:35;;;;;;;1461.10;999.90;;;21.30;99.90;;;;;;5068320;28;20185;-80
2022/07/09 05:44:03;;;;;;;1456.63;999.90;;;21.40;99.90;;;;;;5060348;28;20618;-79
2022/07/09 05:46:32;;;;;;;1452.03;999.90;;;21.50;99.90;;;;;;5069119;28;20226;-79
2022/07/09 05:48:58;;;;;;;1443.55;999.90;;;21.40;99.90;;;;;;5058466;28;20197;-79
2022/07/09 05:51:23;;;;;;;1431.47;999.90;;;21.50;99.90;;;;;;5035154;28;20204;-79
2022/07/09 05:53:49;;;;;;;1433.35;999.90;;;21.50;99.90;;;;;;5054002;28;20633;-79
2022/07/09 05:56:14;;;;;;;1437.85;999.90;;;21.60;99.90;;;;;;5092137;28;20300;-79
2022/07/09 05:58:40;;;;;;;1428.25;999.90;;;21.60;99.90;;;;;;5048197;28;20184;-79
2022/07/09 06:01:06;;;;;;;1416.95;999.90;;;21.70;99.90;;;;;;5064416;28;20711;-79
2022/07/09 06:03:32;;;;;;;1423.00;999.90;;;21.70;99.90;;;;;;5060699;28;20196;-80
2022/07/09 06:05:58;;;;;;;1405.78;999.90;;;21.90;99.90;;;;;;5072125;28;20205;-80
2022/07/09 06:08:24;;;;;;;1380.90;999.90;;;22.30;99.90;;;;;;5064376;28;20646;-79
2022/07/09 06:10:50;;;;;;;1390.38;999.90;;;22.60;99.90;;;;;;5083946;28;20276;-78
2022/07/09 06:13:16;;;;;;;1402.85;999.90;;;22.80;99.90;;;;;;5061180;28;20216;-79
2022/07/09 06:15:42;;;;;;;1383.93;999.90;;;23.00;99.90;;;;;;5047299;28;20181;-78
2022/07/09 06:18:08;;;;;;;1382.82;999.90;;;23.00;99.90;;;;;;5041248;28;20590;-78
2022/07/09 06:20:34;;;;;;;1373.90;999.90;;;23.00;99.90;;;;;;5059646;28;20534;-79
2022/07/09 06:22:59;;;;;;;1381.18;999.90;;;22.80;99.90;;;;;;5067215;28;20180;-79
2022/07/09 06:25:25;;;;;;;1365.53;999.90;;;22.70;99.90;;;;;;5068439;28;20178;-79
2022/07/09 06:27:51;;;;;;;1363.90;999.90;;;22.60;99.90;;;;;;5058908;28;20186;-80
2022/07/09 06:30:16;;;;;;;1374.55;999.90;;;22.60;99.90;;;;;;5057859;28;20182;-79
2022/07/09 06:32:42;;;;;;;1363.95;999.90;;;22.80;99.90;;;;;;5081783;28;20177;-79
2022/07/09 06:35:08;;;;;;;1361.53;999.90;;;22.90;99.90;;;;;;5068816;28;20223;-79
2022/07/09 06:37:34;;;;;;;1359.72;999.90;;;23.30;99.90;;;;;;5068085;28;20217;-74
2022/07/09 06:40:00;;;;;;;1368.35;999.90;;;23.60;99.90;;;;;;5061507;28;20197;-79
2022/07/09 06:42:26;;;;;;;1348.82;999.90;;;23.80;99.90;;;;;;5077344;28;20557;-78
2022/07/09 06:44:52;;;;;;;1355.25;999.90;;;24.10;99.90;;;;;;5059574;28;20276;-77
2022/07/09 06:47:17;;;;;;;1356.70;999.90;;;24.20;99.90;;;;;;5082453;28;20323;-78
2022/07/09 06:49:43;;;;;;;1365.00;999.90;;;24.50;99.90;;;;;;5040784;28;20522;-81
2022/07/09 06:52:09;;;;;;;1355.85;999.90;;;24.60;99.90;;;;;;5072027;28;20269;-72
2022/07/09 06:54:35;;;;;;;1355.45;999.90;;;24.70;99.90;;;;;;5073600;28;20188;-70
2022/07/09 06:57:03;;;;;;;1353.65;999.90;;;25.10;99.90;;;;;;5064338;28;20241;-77
2022/07/09 06:59:29;;;;;;;1369.03;999.90;;;26.00;99.90;;;;;;5082428;28;20205;-77
2022/07/09 07:01:54;;;;;;;1349.32;999.90;;;27.30;99.90;;;;;;5089503;28;20180;-74
2022/07/09 07:04:20;;;;;;;1356.75;999.90;;;27.80;99.90;;;;;;5073069;28;20200;-76
2022/07/09 07:06:48;;;;;;;1361.68;999.90;;;27.60;99.90;;;;;;5084142;28;20540;-77
2022/07/09 07:09:21;;;;;;;1351.65;999.90;;;27.30;99.90;;;;;;5059165;28;20204;-78
2022/07/09 07:11:50;;;;;;;1358.20;999.90;;;27.00;99.90;;;;;;5057281;28;20266;-77
2022/07/09 07:14:16;;;;;;;1359.25;999.90;;;26.70;99.90;;;;;;5055742;28;20584;-76
2022/07/09 07:16:43;;;;;;;1369.93;999.90;;;27.30;99.90;;;;;;5060702;28;20204;-79
2022/07/09 07:19:10;;;;;;;1357.03;999.90;;;28.30;99.90;;;;;;5062481;28;20613;-80
2022/07/09 07:21:36;;;;;;;1344.75;999.90;;;29.40;99.90;;;;;;5088829;28;20184;-80
2022/07/09 07:24:02;;;;;;;1342.40;999.90;;;30.60;99.90;;;;;;5080534;28;20185;-80
2022/07/09 07:26:30;;;;;;;1331.28;999.90;;;30.50;99.90;;;;;;5082585;28;20189;-80
2022/07/09 07:28:56;;;;;;;1324.75;999.90;;;29.80;99.90;;;;;;5066164;28;20192;-78
2022/07/09 07:31:23;;;;;;;1319.20;999.90;;;29.40;99.90;;;;;;5049200;28;20199;-80
2022/07/09 07:33:49;;;;;;;1313.20;999.90;;;28.80;99.90;;;;;;5064650;28;20273;-81
2022/07/09 07:36:14;;;;;;;1310.53;999.90;;;28.20;99.90;;;;;;5069106;28;20320;-80
2022/07/09 07:38:40;;;;;;;1314.55;999.90;;;27.80;99.90;;;;;;5083586;28;20208;-76
2022/07/09 07:41:06;;;;;;;1313.22;999.90;;;27.70;99.90;;;;;;5064817;28;20184;-76
2022/07/09 07:43:31;;;;;;;1313.30;999.90;;;27.60;99.90;;;;;;5069220;28;20183;-77
2022/07/09 07:45:57;;;;;;;1314.13;999.90;;;27.40;99.90;;;;;;5043630;28;20184;-76
2022/07/09 07:48:23;;;;;;;1323.45;999.90;;;27.70;99.90;;;;;;5088546;28;20641;-78
2022/07/09 07:50:48;;;;;;;1310.78;999.90;;;29.10;99.90;;;;;;5063659;28;20192;-76
2022/07/09 07:53:14;;;;;;;1314.63;999.90;;;29.00;99.90;;;;;;5082972;28;20181;-74
2022/07/09 07:55:40;;;;;;;1306.45;999.90;;;28.80;99.90;;;;;;5050515;28;20180;-77
2022/07/09 07:58:05;;;;;;;1303.28;999.90;;;27.80;99.90;;;;;;5068720;28;20189;-76
2022/07/09 08:00:31;;;;;;;1311.55;999.90;;;27.60;99.90;;;;;;5062118;28;20212;-78
2022/07/09 08:02:57;;;;;;;1307.90;999.90;;;28.40;99.90;;;;;;5078706;28;20188;-77
2022/07/09 08:05:23;;;;;;;1314.65;999.90;;;28.60;99.90;;;;;;5076315;28;20574;-77
2022/07/09 08:07:48;;;;;;;1320.18;999.90;;;29.30;99.90;;;;;;5079741;28;20328;-78
2022/07/09 08:10:14;;;;;;;1319.93;999.90;;;30.10;99.90;;;;;;5072392;28;20710;-75
2022/07/09 08:12:40;;;;;;;1310.55;999.90;;;31.60;99.90;;;;;;5064338;28;20629;-75
2022/07/09 08:15:06;;;;;;;1300.57;999.90;;;32.40;99.90;;;;;;5050460;28;20536;-74
2022/07/09 08:17:31;;;;;;;1297.78;999.90;;;32.80;99.90;;;;;;5066378;28;20212;-73
2022/07/09 08:19:57;;;;;;;1291.75;999.90;;;32.30;99.90;;;;;;5079370;28;20258;-74
2022/07/09 08:22:23;;;;;;;1282.35;999.90;;;31.30;99.90;;;;;;5062482;28;20590;-73
2022/07/09 08:24:48;;;;;;;1279.97;999.90;;;30.40;99.90;;;;;;5083030;28;20196;-76
2022/07/09 08:27:14;;;;;;;1268.30;999.90;;;29.10;99.90;;;;;;5067584;28;20210;-75
2022/07/09 08:29:40;;;;;;;1278.82;999.90;;;28.10;99.90;;;;;;5086066;28;20180;-73
2022/07/09 08:32:06;;;;;;;1277.85;999.90;;;28.00;99.90;;;;;;5073247;28;20196;-75
2022/07/09 08:34:31;;;;;;;1283.85;999.90;;;28.00;99.90;;;;;;5063609;28;20185;-75
2022/07/09 08:36:57;;;;;;;1291.25;999.90;;;28.60;99.90;;;;;;5047145;28;20616;-75
2022/07/09 08:39:23;;;;;;;1286.97;999.90;;;28.60;99.90;;;;;;5082514;28;20638;-76
2022/07/09 08:41:49;;;;;;;1295.72;999.90;;;28.70;99.90;;;;;;5064154;28;20184;-75
2022/07/09 08:44:20;;;;;;;1300.05;999.90;;;29.40;99.90;;;;;;5074412;28;20181;-76
2022/07/09 08:46:46;;;;;;;1300.75;999.90;;;30.10;99.90;;;;;;5079798;28;20183;-77
2022/07/09 08:49:15;;;;;;;1291.78;999.90;;;30.60;99.90;;;;;;5056267;28;20185;-76
2022/07/09 08:51:42;;;;;;;1295.68;999.90;;;31.10;99.90;;;;;;5075757;28;20512;-77
2022/07/09 08:54:12;;;;;;;1286.32;999.90;;;32.30;99.90;;;;;;5073945;28;20188;-76
2022/07/09 08:56:40;;;;;;;1278.30;999.90;;;32.70;99.90;;;;;;5076004;28;20299;-77
2022/07/09 08:59:05;;;;;;;1271.93;999.90;;;33.90;99.90;;;;;;5074642;28;20181;-76
2022/07/09 09:01:31;;;;;;;1277.32;999.90;;;34.10;99.90;;;;;;5057467;28;20181;-75
2022/07/09 09:03:57;;;;;;;1270.68;999.90;;;34.30;99.90;;;;;;5061103;28;20519;-71
2022/07/09 09:06:25;;;;;;;1263.32;999.90;;;34.30;99.90;;;;;;5064814;28;20668;-71
2022/07/09 09:08:54;;;;;;;1258.93;999.90;;;33.90;99.90;;;;;;5084928;28;20181;-71
2022/07/09 09:11:22;;;;;;;1262.22;999.90;;;33.70;99.90;;;;;;5055042;28;20268;-72
2022/07/09 09:13:48;;;;;;;1259.35;999.90;;;34.30;99.90;;;;;;5077452;28;20195;-71
2022/07/09 09:16:16;;;;;;;1249.63;999.90;;;34.50;99.90;;;;;;5055830;28;20208;-72
2022/07/09 09:18:44;;;;;;;1250.28;999.90;;;33.70;99.90;;;;;;5073379;28;20212;-71
2022/07/09 09:21:11;;;;;;;1253.53;999.90;;;34.10;99.90;;;;;;5084314;28;20199;-74
2022/07/09 09:23:54;;;;;;;1249.65;999.90;;;34.10;99.90;;;;;;5057699;28;20201;-72
2022/07/09 09:26:25;;;;;;;1244.32;999.90;;;34.10;99.90;;;;;;5059333;28;20206;-72
2022/07/09 09:28:55;;;;;;;1241.10;999.90;;;34.40;99.90;;;;;;5058625;28;20238;-71
2022/07/09 09:31:29;;;;;;;1242.10;999.90;;;34.30;99.90;;;;;;5073288;28;20282;-71
2022/07/09 09:33:56;;;;;;;1232.90;999.90;;;34.00;99.90;;;;;;5069277;28;20246;-72
2022/07/09 09:36:33;;;;;;;1239.72;999.90;;;32.70;99.90;;;;;;5067718;28;20216;-72
2022/07/09 09:39:09;;;;;;;1236.90;999.90;;;32.30;99.90;;;;;;5081241;28;20215;-71
2022/07/09 09:41:35;;;;;;;1248.50;999.90;;;31.80;99.90;;;;;;5061552;28;20176;-71
2022/07/09 09:44:08;;;;;;;1237.97;999.90;;;31.20;99.90;;;;;;5060783;28;20184;-71
2022/07/09 09:46:35;;;;;;;1235.85;999.90;;;30.30;99.90;;;;;;5074064;28;20211;-70
2022/07/09 09:49:05;;;;;;;1226.90;999.90;;;30.10;99.90;;;;;;5069630;28;20187;-71
2022/07/09 09:51:34;;;;;;;1220.55;999.90;;;30.10;99.90;;;;;;5063018;28;20168;-72
2022/07/09 09:54:01;;;;;;;1207.25;999.90;;;30.00;99.90;;;;;;5069011;28;20199;-72
2022/07/09 09:56:28;;;;;;;1202.55;999.90;;;29.30;99.90;;;;;;5078963;28;20204;-70
2022/07/09 09:58:55;;;;;;;1211.03;999.90;;;29.10;99.90;;;;;;5080023;28;20197;-69
2022/07/09 10:01:21;;;;;;;1218.70;999.90;;;29.10;99.90;;;;;;5060114;28;20184;-72
2022/07/09 10:03:48;;;;;;;1219.18;999.90;;;29.10;99.90;;;;;;5054892;28;20199;-70
2022/07/09 10:06:14;;;;;;;1213.07;999.90;;;28.70;99.90;;;;;;5074774;28;20185;-71
2022/07/09 10:08:40;;;;;;;1217.88;999.90;;;28.50;99.90;;;;;;5055721;28;20562;-71
2022/07/09 10:11:05;;;;;;;1215.40;999.90;;;28.20;99.90;;;;;;5070986;28;20192;-71
2022/07/09 10:13:31;;;;;;;1222.90;999.90;;;27.90;99.90;;;;;;5045788;28;20540;-71
2022/07/09 10:15:58;;;;;;;1230.78;999.90;;;27.70;99.90;;;;;;5061176;28;20192;-71
2022/07/09 10:18:23;;;;;;;1233.70;999.90;;;27.50;99.90;;;;;;5065392;28;20671;-71
2022/07/09 10:20:56;;;;;;;1243.78;999.90;;;27.30;99.90;;;;;;5078729;28;20212;-71
2022/07/09 10:23:22;;;;;;;1248.28;999.90;;;27.50;99.90;;;;;;5074136;28;20180;-71
2022/07/09 10:25:55;;;;;;;1252.88;999.90;;;27.60;99.90;;;;;;5084100;28;20208;-70
2022/07/09 10:28:22;;;;;;;1250.22;999.90;;;28.00;99.90;;;;;;5075119;28;20571;-71
2022/07/09 10:30:48;;;;;;;1254.40;999.90;;;27.80;99.90;;;;;;5081387;28;20211;-71
2022/07/09 10:33:35;;;;;;;1247.72;999.90;;;27.50;99.90;;;;;;5071061;28;20176;-70
2022/07/09 10:36:11;;;;;;;1261.40;999.90;;;27.30;99.90;;;;;;5068571;28;20184;-72
2022/07/09 10:38:40;;;;;;;1272.88;999.90;;;27.20;99.90;;;;;;5053508;28;20188;-71
2022/07/09 10:41:06;;;;;;;1279.20;999.90;;;27.20;99.90;;;;;;5069127;28;20269;-72
2022/07/09 10:43:46;;;;;;;1287.47;999.90;;;27.40;99.90;;;;;;5069441;28;20207;-71
2022/07/09 10:46:14;;;;;;;1279.00;999.90;;;27.40;99.90;;;;;;5086483;28;20179;-72
2022/07/09 10:48:41;;;;;;;1267.40;999.90;;;26.80;99.90;;;;;;5071316;28;20202;-72
2022/07/09 10:51:07;;;;;;;1280.47;999.90;;;26.60;99.90;;;;;;5084015;28;20180;-71
2022/07/09 10:53:32;;;;;;;1278.65;999.90;;;26.80;99.90;;;;;;5069515;28;20540;-71
2022/07/09 10:55:59;;;;;;;1290.63;999.90;;;26.90;99.90;;;;;;5066979;28;20196;-71
2022/07/09 10:58:25;;;;;;;1284.45;999.90;;;26.40;99.90;;;;;;5071816;28;20279;-71
2022/07/09 11:01:10;;;;;;;1291.72;999.90;;;26.20;99.90;;;;;;5065214;28;20188;-72
2022/07/09 11:03:35;;;;;;;1290.05;999.90;;;25.90;99.90;;;;;;5083827;28;20180;-72
2022/07/09 11:06:01;;;;;;;1299.60;999.90;;;25.90;99.90;;;;;;5051786;28;20200;-73
2022/07/09 11:08:27;;;;;;;1312.75;999.90;;;26.20;99.90;;;;;;5066638;28;20189;-70
2022/07/09 11:10:53;;;;;;;1300.22;999.90;;;25.90;99.90;;;;;;5053377;28;20276;-72
2022/07/09 11:13:24;;;;;;;1299.72;999.90;;;25.40;99.90;;;;;;5071241;28;20180;-72
2022/07/09 11:15:50;;;;;;;1302.57;999.90;;;25.50;99.90;;;;;;5065139;28;20216;-70
2022/07/09 11:18:16;;;;;;;1304.45;999.90;;;25.60;99.90;;;;;;5082342;28;20663;-75
2022/07/09 11:20:44;;;;;;;1295.55;999.90;;;25.60;99.90;;;;;;5059777;28;20182;-70
2022/07/09 11:23:12;;;;;;;1306.68;999.90;;;25.90;99.90;;;;;;5064005;28;20254;-70
2022/07/09 11:25:38;;;;;;;1305.50;999.90;;;25.90;99.90;;;;;;5063867;28;20321;-75
2022/07/09 11:28:04;;;;;;;1304.63;999.90;;;25.70;99.90;;;;;;5070198;28;20212;-69
2022/07/09 11:30:32;;;;;;;1307.25;999.90;;;25.70;99.90;;;;;;5088433;28;20192;-69
2022/07/09 11:32:58;;;;;;;1305.07;999.90;;;25.30;99.90;;;;;;5063341;28;20272;-70
2022/07/09 11:35:28;;;;;;;1312.63;999.90;;;25.30;99.90;;;;;;5083929;28;20220;-70
2022/07/09 11:38:01;;;;;;;1317.13;999.90;;;25.40;99.90;;;;;;5083214;28;20208;-72
2022/07/09 11:40:27;;;;;;;1832.75;999.90;;;25.10;99.90;;;;;;5071170;28;20181;-68
2022/07/09 11:42:54;;;;;;;1311.82;999.90;;;25.30;99.90;;;;;;5047025;28;20618;-70
2022/07/09 11:45:26;;;;;;;1313.03;999.90;;;25.60;99.90;;;;;;5068912;28;20275;-67
2022/07/09 11:48:13;;;;;;;1999.90;999.90;;;26.00;99.90;;;;;;5070814;28;20660;-68
2022/07/09 11:50:43;;;;;;;1315.45;999.90;;;26.00;99.90;;;;;;5081045;28;20607;-75
2022/07/09 11:53:23;;;;;;;1311.85;999.90;;;25.90;99.90;;;;;;5060221;28;20275;-72
2022/07/09 11:56:04;;;;;;;1310.65;999.90;;;25.90;99.90;;;;;;5090247;28;20183;-70